createdAt,value
2023-04-22T00:04:34.423Z,31.10
2023-04-22T00:09:36.622Z,29.60
2023-04-22T00:14:38.976Z,32.50
2023-04-22T00:19:41.767Z,28.60
2023-04-22T00:24:43.920Z,31.30
2023-04-22T00:29:45.753Z,27.90
2023-04-22T00:34:47.394Z,28.60
2023-04-22T00:39:49.098Z,27.90
2023-04-22T00:49:55.001Z,29.40
2023-04-22T00:54:57.233Z,32.50
2023-04-22T00:59:59.294Z,30.70
2023-04-22T01:05:02.128Z,31.20
2023-04-22T01:10:04.713Z,30.10
2023-04-22T01:15:07.587Z,30.50
2023-04-22T01:20:10.566Z,31.50
2023-04-22T01:25:13.093Z,29.80
2023-04-22T01:30:15.733Z,27.60
2023-04-22T01:35:17.520Z,31.30
2023-04-22T01:40:22.792Z,32.00
2023-04-22T01:45:24.755Z,30.80
2023-04-22T01:50:26.553Z,31.60
2023-04-22T01:55:28.472Z,29.70
2023-04-22T02:00:30.293Z,30.10
2023-04-22T02:05:32.663Z,29.20
2023-04-22T02:10:34.513Z,32.00
2023-04-22T02:15:36.332Z,34.00
2023-04-22T02:20:38.367Z,37.50
2023-04-22T02:25:41.032Z,37.10
2023-04-22T02:30:42.975Z,40.90
2023-04-22T02:35:44.916Z,42.70
2023-04-22T02:40:51.021Z,39.50
2023-04-22T02:45:52.767Z,45.90
2023-04-22T02:50:54.615Z,46.60
2023-04-22T02:55:58.352Z,38.30
2023-04-22T03:01:01.173Z,29.60
2023-04-22T03:06:02.961Z,37.70
2023-04-22T03:16:07.527Z,30.60
2023-04-22T03:21:09.321Z,29.00
2023-04-22T03:26:11.276Z,32.00
2023-04-22T03:31:16.621Z,36.70
2023-04-22T03:36:19.512Z,36.10
2023-04-22T03:41:21.421Z,37.40
2023-04-22T03:46:23.832Z,38.80
2023-04-22T03:51:32.835Z,36.90
2023-04-22T03:56:36.877Z,37.80
2023-04-22T04:07:13.833Z,34.10
2023-04-22T04:12:15.795Z,34.90
2023-04-22T04:17:18.865Z,35.40
2023-04-22T04:22:21.380Z,36.80
2023-04-22T04:27:29.855Z,34.60
2023-04-22T04:32:34.445Z,35.00
2023-04-22T04:37:40.467Z,36.40
2023-04-22T04:42:44.377Z,31.50
2023-04-22T04:47:55.464Z,32.20
2023-04-22T04:53:04.092Z,35.00
2023-04-22T04:58:20.832Z,35.40
2023-04-22T05:03:25.752Z,33.50
2023-04-22T05:08:29.427Z,34.70
2023-04-22T05:13:37.663Z,32.80
2023-04-22T05:18:40.814Z,33.90
2023-04-22T05:23:44.125Z,37.90
2023-04-22T05:28:46.102Z,51.80
2023-04-22T05:33:48.584Z,38.40
2023-04-22T05:38:50.805Z,39.80
2023-04-22T05:43:52.612Z,33.60
2023-04-22T05:48:55.893Z,32.20
2023-04-22T05:54:18.071Z,28.60
2023-04-22T05:59:21.825Z,28.70
2023-04-22T06:04:24.789Z,29.40
2023-04-22T06:09:26.874Z,31.30
2023-04-22T06:14:28.646Z,33.10
2023-04-22T06:19:30.551Z,33.00
2023-04-22T06:24:32.680Z,34.00
2023-04-22T06:29:34.646Z,35.60
2023-04-22T06:34:38.704Z,29.70
2023-04-22T06:39:41.366Z,27.80
2023-04-22T06:45:00.664Z,28.00
2023-04-22T06:50:35.522Z,28.80
2023-04-22T06:55:37.395Z,26.80
2023-04-22T07:00:39.394Z,27.40
2023-04-22T07:05:41.355Z,28.20
2023-04-22T07:10:43.761Z,29.00
2023-04-22T07:16:08.716Z,26.50
2023-04-22T07:21:10.491Z,26.20
2023-04-22T07:26:12.575Z,25.70
2023-04-22T07:31:14.398Z,24.40
2023-04-22T07:36:16.301Z,25.80
2023-04-22T07:41:37.080Z,24.00
2023-04-22T07:46:38.885Z,20.20
2023-04-22T07:51:41.202Z,20.40
2023-04-22T07:56:42.945Z,19.30
2023-04-22T08:01:46.673Z,19.90
2023-04-22T08:06:48.372Z,17.50
2023-04-22T08:11:50.114Z,14.90
2023-04-22T08:16:52.618Z,15.10
2023-04-22T08:21:54.335Z,18.20
2023-04-22T08:26:56.740Z,14.30
2023-04-22T08:31:58.429Z,11.40
2023-04-22T08:37:00.184Z,14.20
2023-04-22T08:42:02.287Z,8.20
2023-04-22T08:47:05.064Z,4.70
2023-04-22T08:52:10.706Z,4.90
2023-04-22T08:57:15.192Z,3.70
2023-04-22T09:02:20.696Z,3.80
2023-04-22T09:07:25.213Z,4.20
2023-04-22T09:12:27.606Z,4.10
2023-04-22T09:17:33.898Z,4.40
2023-04-22T09:22:43.249Z,4.60
2023-04-22T09:27:52.460Z,5.40
2023-04-22T09:33:02.408Z,5.30
2023-04-22T09:38:08.252Z,5.30
2023-04-22T09:43:11.556Z,5.30
2023-04-22T09:48:15.657Z,5.40
2023-04-22T09:53:19.874Z,5.20
2023-04-22T09:58:27.916Z,5.30
2023-04-22T10:03:30.050Z,5.40
2023-04-22T10:08:33.513Z,5.50
2023-04-22T10:13:36.472Z,5.40
2023-04-22T10:18:39.957Z,5.00
2023-04-22T10:23:47.910Z,4.80
2023-04-22T10:28:51.087Z,4.70
2023-04-22T10:34:11.330Z,4.70
2023-04-22T10:44:22.118Z,4.00
2023-04-22T10:49:26.058Z,3.30
2023-04-22T10:54:30.591Z,3.50
2023-04-22T10:59:35.746Z,4.10
2023-04-22T11:04:38.798Z,4.10
2023-04-22T11:09:41.680Z,3.10
2023-04-22T11:14:43.846Z,3.00
2023-04-22T11:19:47.237Z,3.60
2023-04-22T11:25:01.472Z,3.70
2023-04-22T11:30:13.022Z,3.70
2023-04-22T11:35:15.941Z,2.90
2023-04-22T11:40:29.872Z,3.80
2023-04-22T11:45:34.867Z,3.50
2023-04-22T11:50:42.285Z,3.20
2023-04-22T11:55:46.839Z,3.10
2023-04-22T12:00:50.880Z,5.90
2023-04-22T12:05:53.708Z,10.50
2023-04-22T12:10:57.735Z,4.30
2023-04-22T12:16:02.087Z,2.90
2023-04-22T12:21:07.069Z,3.50
2023-04-22T12:26:09.157Z,3.30
2023-04-22T12:31:12.811Z,2.90
2023-04-22T12:36:14.665Z,3.10
2023-04-22T12:41:16.595Z,3.10
2023-04-22T12:46:18.426Z,3.00
2023-04-22T12:51:20.166Z,2.60
2023-04-22T12:56:21.974Z,3.20
2023-04-22T13:01:23.796Z,3.00
2023-04-22T13:06:25.535Z,3.10
2023-04-22T13:11:27.466Z,3.00
2023-04-22T13:16:29.308Z,2.90
2023-04-22T13:21:31.953Z,3.20
2023-04-22T13:26:33.717Z,3.10
2023-04-22T13:31:35.654Z,2.70
2023-04-22T13:36:37.507Z,3.00
2023-04-22T13:41:39.218Z,2.80
2023-04-22T13:46:42.073Z,3.10
2023-04-22T13:51:43.768Z,2.90
2023-04-22T13:56:45.785Z,3.70
2023-04-22T14:01:47.509Z,2.70
2023-04-22T14:06:50.476Z,2.80
2023-04-22T14:11:52.328Z,3.00
2023-04-22T14:16:54.433Z,3.10
2023-04-22T14:21:56.265Z,3.10
2023-04-22T14:27:04.109Z,3.00
2023-04-22T14:32:06.033Z,2.50
2023-04-22T14:37:07.767Z,2.80
2023-04-22T14:42:10.628Z,3.70
2023-04-22T14:47:12.356Z,3.30
2023-04-22T14:52:14.134Z,2.20
2023-04-22T14:57:15.841Z,2.60
2023-04-22T15:02:17.715Z,2.40
2023-04-22T15:07:19.634Z,2.10
2023-04-22T15:12:21.411Z,2.70
2023-04-22T15:17:24.143Z,2.20
2023-04-22T15:22:25.915Z,2.60
2023-04-22T15:27:27.642Z,3.60
2023-04-22T15:32:29.379Z,2.60
2023-04-22T15:37:31.058Z,2.30
2023-04-22T15:42:32.733Z,3.40
2023-04-22T15:47:36.423Z,2.40
2023-04-22T15:52:38.841Z,2.60
2023-04-22T15:57:40.736Z,2.60
2023-04-22T16:02:43.789Z,2.60
2023-04-22T16:07:46.407Z,3.50
2023-04-22T16:12:49.347Z,2.90
2023-04-22T16:17:51.327Z,3.70
2023-04-22T16:22:53.186Z,3.20
2023-04-22T16:27:55.224Z,3.20
2023-04-22T16:32:57.031Z,3.50
2023-04-22T16:37:58.836Z,3.00
2023-04-22T16:43:33.899Z,3.00
2023-04-22T16:48:36.019Z,5.10
2023-04-22T16:53:37.831Z,4.60
2023-04-22T16:58:39.575Z,5.40
2023-04-22T17:03:41.863Z,6.10
2023-04-22T17:08:43.882Z,3.90
2023-04-22T17:13:45.707Z,6.70
2023-04-22T17:18:47.436Z,2.70
2023-04-22T17:23:49.963Z,3.30
2023-04-22T17:28:52.060Z,4.30
2023-04-22T17:33:53.797Z,15.80
2023-04-22T17:38:55.527Z,39.90
2023-04-22T17:43:59.008Z,10.30
2023-04-22T17:49:01.272Z,5.50
2023-04-22T17:54:05.208Z,5.30
2023-04-22T17:59:12.444Z,5.30
2023-04-22T18:04:14.494Z,4.50
2023-04-22T18:09:16.442Z,4.80
2023-04-22T18:14:20.859Z,5.90
2023-04-22T18:19:22.768Z,12.80
2023-04-22T18:24:24.748Z,10.60
2023-04-22T18:29:26.453Z,9.30
2023-04-22T18:34:29.153Z,7.30
2023-04-22T18:39:31.184Z,7.50
2023-04-22T18:44:32.861Z,6.60
2023-04-22T18:49:34.584Z,9.60
2023-04-22T18:54:36.298Z,6.50
2023-04-22T18:59:38.199Z,9.80
2023-04-22T19:04:40.391Z,10.90
2023-04-22T19:09:42.434Z,24.30
2023-04-22T19:14:44.320Z,10.30
2023-04-22T19:19:46.590Z,13.40
2023-04-22T19:24:48.348Z,9.90
2023-04-22T19:29:53.422Z,8.90
2023-04-22T19:34:55.396Z,11.90
2023-04-22T19:39:57.651Z,16.30
2023-04-22T19:44:59.559Z,16.90
2023-04-22T19:50:02.694Z,25.80
2023-04-22T19:55:09.329Z,46.00
2023-04-22T20:00:11.840Z,47.10
2023-04-22T20:05:18.519Z,45.40
2023-04-22T20:10:22.716Z,41.40
2023-04-22T20:15:24.710Z,39.20
2023-04-22T20:20:27.612Z,36.50
2023-04-22T20:25:30.991Z,34.50
2023-04-22T20:30:33.337Z,30.20
2023-04-22T20:35:38.240Z,29.70
2023-04-22T20:40:41.144Z,29.10
2023-04-22T20:45:43.295Z,24.90
2023-04-22T20:50:46.147Z,27.90
2023-04-22T20:55:47.859Z,37.20
2023-04-22T21:00:49.660Z,37.10
2023-04-22T21:05:52.392Z,32.90
2023-04-22T21:11:00.298Z,30.10
2023-04-22T21:16:11.755Z,29.20
2023-04-22T21:21:16.156Z,30.20
2023-04-22T21:26:18.743Z,31.50
2023-04-22T21:31:22.006Z,30.90
2023-04-22T21:36:25.027Z,30.20
2023-04-22T21:41:27.623Z,28.80
2023-04-22T21:46:29.713Z,25.90
2023-04-22T21:51:34.375Z,25.00
2023-04-22T21:56:36.414Z,24.00
2023-04-22T22:01:38.173Z,23.70
2023-04-22T22:06:39.928Z,24.90
2023-04-22T22:11:41.719Z,26.00
2023-04-22T22:16:43.895Z,27.90
2023-04-22T22:21:46.295Z,26.50
2023-04-22T22:26:48.060Z,23.00
2023-04-22T22:31:50.002Z,30.40
2023-04-22T22:36:51.759Z,26.80
2023-04-22T22:41:55.417Z,23.10
2023-04-22T22:46:57.203Z,22.30
2023-04-22T22:52:01.544Z,23.90
2023-04-22T22:57:05.691Z,27.20
2023-04-22T23:02:07.535Z,25.70
2023-04-22T23:07:10.401Z,27.50
2023-04-22T23:12:32.132Z,25.20
2023-04-22T23:17:36.227Z,24.70
2023-04-22T23:22:40.686Z,23.90
2023-04-22T23:27:43.303Z,25.30
2023-04-22T23:32:49.756Z,21.90
2023-04-22T23:37:54.720Z,23.30
2023-04-22T23:42:56.992Z,19.10
2023-04-22T23:48:01.195Z,18.30
2023-04-22T23:53:02.966Z,17.30
2023-04-22T23:58:04.923Z,17.10
